Time;durP1;ratioP1;P1;durP2;ratioP2;P2;SDS_P1;SDS_P2;PMS_P1;PMS_P2;Temp;Humidity;BMP_temperature;BMP_pressure;BME280_temperature;BME280_humidity;BME280_pressure;Samples;Min_cycle;Max_cycle;Signal;HPM_P1;HPM_P2
2022/03/10 00:01:57;;;;;;;33.00;14.00;;;;;;;-1.98;76.28;101958.34;87905;1281;81350;-62
2022/03/10 00:04:09;;;;;;;23.80;12.40;;;;;;;-1.98;76.47;101962.73;87886;1281;98527;-63
2022/03/10 00:06:21;;;;;;;23.50;12.40;;;;;;;-1.97;76.46;101960.95;87889;1281;88702;-61
2022/03/10 00:08:30;;;;;;;22.90;12.50;;;;;;;-1.98;76.69;101961.70;87894;1281;94247;-61
2022/03/10 00:10:39;;;;;;;25.60;11.90;;;;;;;-1.96;76.56;101966.39;87895;1281;78282;-62
2022/03/10 00:12:56;;;;;;;22.40;11.20;;;;;;;-2.00;76.46;101966.38;87906;1281;82882;-79
2022/03/10 00:15:09;;;;;;;26.20;11.00;;;;;;;-2.04;76.79;101972.58;87899;1281;99102;-79
2022/03/10 00:17:20;;;;;;;22.80;11.20;;;;;;;-2.05;76.67;101975.63;87771;1284;89042;-62
2022/03/10 00:19:29;;;;;;;19.90;10.50;;;;;;;-2.06;76.67;101973.04;87875;1281;91934;-61
2022/03/10 00:21:40;;;;;;;17.90;10.60;;;;;;;-2.10;76.52;101977.27;87848;1281;81523;-78
2022/03/10 00:23:52;;;;;;;18.90;9.60;;;;;;;-2.10;76.70;101973.04;87893;1281;83399;-79
2022/03/10 00:26:01;;;;;;;18.50;9.90;;;;;;;-2.14;76.33;101976.05;87873;1281;100573;-63
2022/03/10 00:28:11;;;;;;;20.50;10.30;;;;;;;-2.20;76.45;101979.84;87953;1281;86610;-61
2022/03/10 00:30:20;;;;;;;18.70;9.50;;;;;;;-2.23;76.53;101980.86;87809;1282;93317;-61
2022/03/10 00:32:30;;;;;;;17.20;10.50;;;;;;;-2.26;76.43;101983.34;87883;1281;79566;-79
2022/03/10 00:34:42;;;;;;;17.90;10.50;;;;;;;-2.30;76.53;101983.51;87936;1281;81588;-79
2022/03/10 00:36:51;;;;;;;18.30;10.20;;;;;;;-2.33;76.60;101987.68;87868;1280;100104;-61
2022/03/10 00:39:04;;;;;;;18.40;9.80;;;;;;;-2.36;76.65;101986.77;87888;1281;87620;-61
2022/03/10 00:41:13;;;;;;;17.80;10.10;;;;;;;-2.41;76.74;101991.23;87932;1281;94242;-63
2022/03/10 00:43:22;;;;;;;21.10;10.30;;;;;;;-2.42;77.12;101993.91;87885;1281;79804;-61
2022/03/10 00:45:31;;;;;;;18.90;10.50;;;;;;;-2.41;77.01;101996.31;87877;1281;81652;-60
2022/03/10 00:47:41;;;;;;;19.40;10.10;;;;;;;-2.44;77.01;101999.61;87864;1281;97924;-61
2022/03/10 00:49:50;;;;;;;15.10;9.60;;;;;;;-2.45;76.91;102002.85;87876;1281;89472;-62
2022/03/10 00:51:59;;;;;;;16.10;9.40;;;;;;;-2.46;77.06;102004.31;87874;1281;95280;-61
2022/03/10 00:54:08;;;;;;;17.00;9.40;;;;;;;-2.50;76.60;102007.65;87872;1281;78030;-62
2022/03/10 00:56:18;;;;;;;16.60;10.00;;;;;;;-2.50;77.19;102012.46;87895;1281;83425;-79
2022/03/10 00:58:28;;;;;;;16.10;9.00;;;;;;;-2.52;77.01;102015.70;87890;1281;100532;-78
2022/03/10 01:00:39;;;;;;;18.20;10.10;;;;;;;-2.55;77.33;102017.05;87900;1281;88737;-79
2022/03/10 01:02:48;;;;;;;17.50;9.30;;;;;;;-2.58;77.02;102016.14;87879;1281;95364;-60
2022/03/10 01:04:58;;;;;;;16.40;9.40;;;;;;;-2.62;77.21;102018.05;87883;1281;80492;-61
2022/03/10 01:07:07;;;;;;;18.10;10.00;;;;;;;-2.64;77.13;102019.56;87898;1281;81074;-80
2022/03/10 01:09:17;;;;;;;18.60;9.40;;;;;;;-2.67;77.41;102023.58;87863;1281;100134;-80
2022/03/10 01:11:26;;;;;;;17.60;9.70;;;;;;;-2.68;77.04;102022.41;87867;1281;87971;-79
2022/03/10 01:13:36;;;;;;;15.60;9.60;;;;;;;-2.70;77.14;102027.59;87892;1281;93882;-79
2022/03/10 01:15:50;;;;;;;15.30;8.90;;;;;;;-2.72;77.02;102029.09;87881;1281;80108;-79
2022/03/10 01:17:59;;;;;;;17.40;9.30;;;;;;;-2.74;77.27;102033.03;87880;1281;82170;-61
2022/03/10 01:20:11;;;;;;;16.60;9.80;;;;;;;-2.78;77.52;102034.64;87882;1281;97802;-61
2022/03/10 01:22:20;;;;;;;17.00;10.10;;;;;;;-2.80;77.29;102036.66;87878;1281;88713;-61
2022/03/10 01:24:30;;;;;;;17.60;9.80;;;;;;;-2.83;77.43;102040.49;87879;1281;95556;-62
2022/03/10 01:26:39;;;;;;;15.80;9.80;;;;;;;-2.89;77.37;102043.20;87875;1281;81271;-61
2022/03/10 01:28:51;;;;;;;15.30;9.80;;;;;;;-2.90;77.40;102046.42;87882;1281;82500;-62
2022/03/10 01:31:00;;;;;;;14.30;9.40;;;;;;;-2.92;77.36;102045.61;87865;1281;98454;-68
2022/03/10 01:33:09;;;;;;;17.20;10.10;;;;;;;-2.94;77.48;102053.48;87898;1281;87644;-78
2022/03/10 01:35:19;;;;;;;15.50;9.80;;;;;;;-2.98;77.50;102052.93;87859;1281;95183;-79
2022/03/10 01:37:32;;;;;;;14.90;8.60;;;;;;;-3.00;77.48;102057.77;87876;1281;79396;-62
2022/03/10 01:39:42;;;;;;;15.90;9.20;;;;;;;-3.02;77.37;102063.45;87896;1281;82037;-62
2022/03/10 01:41:54;;;;;;;15.10;9.40;;;;;;;-3.04;77.23;102063.20;87917;1281;100741;-79
2022/03/10 01:44:05;;;;;;;19.30;10.30;;;;;;;-3.05;77.41;102068.53;87812;1282;89112;-78
2022/03/10 01:46:14;;;;;;;15.70;9.90;;;;;;;-3.08;77.48;102067.75;87869;1281;96153;-78
2022/03/10 01:48:23;;;;;;;15.70;9.50;;;;;;;-3.08;77.31;102066.00;87881;1281;78927;-79
2022/03/10 01:50:33;;;;;;;20.60;10.70;;;;;;;-3.10;77.42;102069.83;87831;1282;80917;-79
2022/03/10 01:52:42;;;;;;;17.30;9.40;;;;;;;-3.13;77.37;102072.91;87895;1281;98284;-79
2022/03/10 01:54:51;;;;;;;18.50;10.20;;;;;;;-3.15;77.40;102075.10;87901;1281;86857;-77
2022/03/10 01:57:02;;;;;;;16.20;9.00;;;;;;;-3.15;77.35;102078.27;87871;1281;94080;-77
2022/03/10 01:59:15;;;;;;;18.60;10.10;;;;;;;-3.17;77.34;102081.55;87939;1281;81938;-78
2022/03/10 02:01:24;;;;;;;17.30;10.20;;;;;;;-3.19;77.85;102084.27;87885;1281;82533;-79
2022/03/10 02:03:33;;;;;;;19.20;11.00;;;;;;;-3.20;77.51;102083.25;87890;1281;99825;-78
2022/03/10 02:05:46;;;;;;;18.80;10.50;;;;;;;-3.21;77.58;102090.50;87916;1281;89274;-79
2022/03/10 02:10:23;;;;;;;17.60;9.40;;;;;;;-3.28;77.50;102098.70;87893;1281;79200;-78
2022/03/10 02:12:34;;;;;;;20.20;10.90;;;;;;;-3.30;77.54;102100.39;87936;1281;80777;-78
2022/03/10 02:17:23;;;;;;;18.80;10.10;;;;;;;-3.37;77.67;102103.13;87781;1282;89554;-78
2022/03/10 02:19:32;;;;;;;19.70;9.90;;;;;;;-3.37;77.97;102109.83;87876;1281;94380;-79
2022/03/10 02:21:42;;;;;;;16.80;9.60;;;;;;;-3.41;77.65;102107.16;87900;1281;80174;-61
2022/03/10 02:23:51;;;;;;;18.30;10.30;;;;;;;-3.44;77.63;102106.58;87921;1281;80955;-62
2022/03/10 02:26:01;;;;;;;20.90;9.90;;;;;;;-3.46;77.77;102110.70;87873;1281;100331;-72
2022/03/10 02:28:10;;;;;;;20.20;9.70;;;;;;;-3.47;77.85;102112.33;87906;1281;88135;-62
2022/03/10 02:30:21;;;;;;;16.40;9.60;;;;;;;-3.49;77.86;102112.95;87885;1281;95023;-62
2022/03/10 02:32:30;;;;;;;19.50;10.40;;;;;;;-3.52;77.76;102115.31;87760;1284;81568;-79
2022/03/10 02:34:41;;;;;;;19.70;10.10;;;;;;;-3.54;77.71;102116.65;87938;1281;82307;-79
2022/03/10 02:36:50;;;;;;;17.80;9.70;;;;;;;-3.56;77.84;102122.87;87927;1281;98599;-61
2022/03/10 02:39:00;;;;;;;22.00;10.80;;;;;;;-3.58;77.97;102125.79;87889;1281;87453;-62
2022/03/10 02:41:10;;;;;;;18.50;10.00;;;;;;;-3.58;77.74;102128.58;87958;1281;93401;-78
2022/03/10 02:43:20;;;;;;;17.80;9.90;;;;;;;-3.57;77.95;102130.50;87926;1281;80730;-80
2022/03/10 02:45:33;;;;;;;18.80;8.90;;;;;;;-3.56;77.88;102135.72;87942;1281;82162;-77
2022/03/10 02:47:42;;;;;;;18.00;10.00;;;;;;;-3.55;77.82;102137.97;87935;1281;98395;-77
2022/03/10 02:49:55;;;;;;;20.40;10.50;;;;;;;-3.55;77.74;102139.21;87916;1281;88369;-80
2022/03/10 02:52:06;;;;;;;16.10;8.90;;;;;;;-3.55;78.32;102144.49;87967;1281;94614;-79
2022/03/10 02:54:16;;;;;;;16.00;9.20;;;;;;;-3.56;77.90;102145.93;87923;1281;79189;-79
2022/03/10 02:56:25;;;;;;;17.60;9.00;;;;;;;-3.57;78.29;102156.02;87934;1281;80690;-61
2022/03/10 02:58:35;;;;;;;15.80;9.70;;;;;;;-3.59;77.94;102156.61;87873;1281;97725;-61
2022/03/10 03:00:44;;;;;;;16.70;9.60;;;;;;;-3.61;77.66;102161.27;87923;1281;88739;-61
2022/03/10 03:02:53;;;;;;;19.90;11.50;;;;;;;-3.65;78.08;102162.45;87964;1281;92908;-80
2022/03/10 03:05:02;;;;;;;18.00;10.80;;;;;;;-3.64;77.96;102164.55;87733;1284;80058;-81
2022/03/10 03:07:11;;;;;;;25.00;13.00;;;;;;;-3.65;77.83;102167.76;87940;1281;81697;-61
2022/03/10 03:09:24;;;;;;;21.40;11.20;;;;;;;-3.66;77.77;102170.42;87873;1281;99690;-62
2022/03/10 03:11:33;;;;;;;20.00;10.80;;;;;;;-3.63;77.93;102174.70;87933;1281;87395;-79
2022/03/10 03:13:43;;;;;;;31.40;16.00;;;;;;;-3.60;77.87;102179.70;87919;1281;94260;-79
2022/03/10 03:15:53;;;;;;;30.80;15.20;;;;;;;-3.61;77.79;102175.17;87910;1281;79579;-80
2022/03/10 03:18:06;;;;;;;23.70;12.30;;;;;;;-3.63;77.68;102179.81;87946;1281;82650;-80
2022/03/10 03:20:17;;;;;;;24.20;12.80;;;;;;;-3.65;77.74;102182.17;87922;1281;99155;-79
2022/03/10 03:22:26;;;;;;;23.20;11.80;;;;;;;-3.69;77.70;102182.86;87969;1281;87409;-61
2022/03/10 03:24:35;;;;;;;26.20;12.40;;;;;;;-3.69;77.53;102186.72;87899;1281;95083;-62
2022/03/10 03:26:44;;;;;;;33.90;13.70;;;;;;;-3.69;77.49;102191.33;87879;1281;79101;-80
2022/03/10 03:28:57;;;;;;;68.50;24.70;;;;;;;-3.71;77.45;102192.64;87916;1281;79992;-79
2022/03/10 03:31:06;;;;;;;30.00;14.50;;;;;;;-3.76;77.68;102198.42;87927;1281;100017;-78
2022/03/10 03:33:16;;;;;;;46.30;19.80;;;;;;;-3.78;77.18;102201.15;87980;1281;89242;-79
2022/03/10 03:35:25;;;;;;;30.00;13.60;;;;;;;-3.81;77.42;102198.94;87685;1284;94758;-79
2022/03/10 03:37:38;;;;;;;37.10;15.10;;;;;;;-3.82;77.19;102203.77;87063;1281;1161489;-61
2022/03/10 03:39:47;;;;;;;43.20;18.70;;;;;;;-3.88;77.08;102204.64;87798;1282;82650;-62
2022/03/10 03:41:57;;;;;;;50.80;19.80;;;;;;;-3.90;77.14;102207.91;87803;1282;99759;-62
2022/03/10 03:44:07;;;;;;;55.40;22.10;;;;;;;-3.93;77.20;102210.66;87799;1282;89398;-62
2022/03/10 03:46:16;;;;;;;54.10;20.60;;;;;;;-3.98;77.32;102217.88;87849;1282;93658;-62
2022/03/10 03:48:25;;;;;;;47.40;17.90;;;;;;;-4.02;77.20;102219.58;87683;1284;79988;-62
2022/03/10 03:50:34;;;;;;;36.30;15.00;;;;;;;-4.04;77.25;102225.63;87835;1282;81295;-61
2022/03/10 03:52:47;;;;;;;26.30;13.10;;;;;;;-4.06;77.08;102229.59;87817;1282;97959;-78
2022/03/10 03:54:56;;;;;;;31.40;13.50;;;;;;;-4.08;77.00;102231.39;87839;1282;89044;-78
2022/03/10 03:57:06;;;;;;;44.80;18.00;;;;;;;-4.08;76.99;102232.64;87809;1282;95318;-80
2022/03/10 03:59:20;;;;;;;61.20;20.70;;;;;;;-4.11;77.03;102239.96;87832;1282;80735;-80
2022/03/10 04:01:29;;;;;;;68.50;24.80;;;;;;;-4.16;76.97;102242.07;87617;1284;83397;-79
2022/03/10 04:03:39;;;;;;;59.20;21.20;;;;;;;-4.21;76.81;102243.29;87571;1284;99275;-80
2022/03/10 04:05:48;;;;;;;41.30;17.20;;;;;;;-4.25;76.78;102243.74;87840;1282;87578;-79
2022/03/10 04:07:58;;;;;;;44.60;20.00;;;;;;;-4.26;76.66;102243.44;87875;1282;94203;-79
2022/03/10 04:10:09;;;;;;;46.50;23.40;;;;;;;-4.30;76.53;102244.80;87839;1282;82180;-79
2022/03/10 04:12:25;;;;;;;20.80;10.50;;;;;;;-4.35;76.62;102249.02;87827;1282;83425;-61
2022/03/10 04:14:34;;;;;;;25.90;14.60;;;;;;;-4.36;76.83;102252.71;87805;1282;99394;-62
2022/03/10 04:16:43;;;;;;;24.40;15.10;;;;;;;-4.38;76.68;102253.48;87705;1283;91265;-79
2022/03/10 04:18:52;;;;;;;23.50;15.00;;;;;;;-4.39;76.75;102251.08;87845;1282;95191;-80
2022/03/10 04:21:02;;;;;;;17.40;10.60;;;;;;;-4.43;76.61;102256.13;87808;1282;81806;-76
2022/03/10 04:23:12;;;;;;;18.20;11.00;;;;;;;-4.47;76.59;102257.84;87880;1282;83539;-79
2022/03/10 04:25:22;;;;;;;17.70;9.40;;;;;;;-4.51;76.72;102258.50;87850;1282;100266;-79
2022/03/10 04:27:31;;;;;;;17.30;9.60;;;;;;;-4.53;76.51;102262.93;87834;1282;87641;-62
2022/03/10 04:29:41;;;;;;;16.10;9.90;;;;;;;-4.54;76.60;102264.22;87833;1282;94104;-61
2022/03/10 04:31:54;;;;;;;21.40;10.30;;;;;;;-4.55;76.61;102268.11;87839;1282;80136;-80
2022/03/10 04:34:04;;;;;;;19.80;11.40;;;;;;;-4.57;76.52;102272.58;87885;1282;81127;-78
2022/03/10 04:36:17;;;;;;;16.90;10.00;;;;;;;-4.57;76.56;102274.15;87889;1282;99850;-79
2022/03/10 04:38:28;;;;;;;19.00;10.40;;;;;;;-4.56;76.71;102278.33;87848;1282;87794;-79
2022/03/10 04:40:41;;;;;;;19.10;10.00;;;;;;;-4.56;76.51;102279.74;87848;1282;92884;-79
2022/03/10 04:42:52;;;;;;;16.60;9.80;;;;;;;-4.55;76.44;102282.19;87796;1282;80930;-61
2022/03/10 04:45:06;;;;;;;16.10;9.10;;;;;;;-4.56;76.47;102282.38;87843;1281;81852;-61
2022/03/10 04:47:15;;;;;;;18.10;10.30;;;;;;;-4.54;76.40;102286.20;87836;1282;97565;-78
2022/03/10 04:49:25;;;;;;;15.80;9.40;;;;;;;-4.56;76.27;102288.52;87841;1282;88480;-79
2022/03/10 04:51:35;;;;;;;15.80;8.70;;;;;;;-4.56;76.27;102291.16;87842;1282;95051;-62
2022/03/10 04:53:45;;;;;;;17.10;8.90;;;;;;;-4.56;76.19;102288.86;87803;1281;81288;-62
2022/03/10 04:55:55;;;;;;;16.50;9.80;;;;;;;-4.56;76.10;102296.08;87804;1282;83299;-62
2022/03/10 04:58:05;;;;;;;15.90;8.60;;;;;;;-4.56;76.27;102299.42;87820;1282;99383;-63
2022/03/10 05:00:19;;;;;;;14.10;8.50;;;;;;;-4.56;76.18;102299.44;87830;1282;89570;-63
2022/03/10 05:02:29;;;;;;;16.20;9.30;;;;;;;-4.58;75.97;102301.25;87606;1282;94465;-61
2022/03/10 05:04:39;;;;;;;16.40;9.60;;;;;;;-4.60;76.02;102305.54;87837;1282;79774;-62
2022/03/10 05:06:48;;;;;;;21.00;10.10;;;;;;;-4.62;75.83;102307.01;87831;1282;79856;-74
2022/03/10 05:09:01;;;;;;;15.30;9.00;;;;;;;-4.66;75.85;102312.04;87793;1282;98965;-75
2022/03/10 05:11:11;;;;;;;18.60;9.10;;;;;;;-4.69;75.86;102317.77;87793;1282;88654;-60
2022/03/10 05:13:21;;;;;;;17.10;8.80;;;;;;;-4.72;75.80;102323.14;87632;1284;93497;-62
2022/03/10 05:15:32;;;;;;;14.00;8.00;;;;;;;-4.74;75.90;102330.38;87814;1282;82208;-62
2022/03/10 05:17:41;;;;;;;13.50;7.10;;;;;;;-4.77;75.81;102331.34;87852;1282;82927;-62
2022/03/10 05:19:52;;;;;;;14.70;8.00;;;;;;;-4.77;75.89;102335.39;87599;1284;96921;-61
2022/03/10 05:22:05;;;;;;;15.00;7.70;;;;;;;-4.77;75.88;102335.04;87821;1282;87580;-61
2022/03/10 05:24:15;;;;;;;14.70;7.40;;;;;;;-4.73;75.94;102339.17;87836;1282;93546;-62
2022/03/10 05:26:24;;;;;;;13.80;7.20;;;;;;;-4.70;75.89;102343.82;87787;1282;82605;-75
2022/03/10 05:28:38;;;;;;;12.70;7.00;;;;;;;-4.64;75.96;102351.02;87839;1282;81816;-75
2022/03/10 05:30:48;;;;;;;13.70;7.40;;;;;;;-4.60;75.90;102354.73;87835;1282;98725;-75
2022/03/10 05:33:00;;;;;;;14.30;7.20;;;;;;;-4.55;75.78;102359.16;87855;1282;87607;-62
2022/03/10 05:35:14;;;;;;;13.10;7.60;;;;;;;-4.48;75.81;102360.18;87802;1282;95908;-62
2022/03/10 05:37:28;;;;;;;13.10;7.30;;;;;;;-4.42;75.64;102368.98;87847;1282;79150;-73
2022/03/10 05:39:38;;;;;;;17.40;8.20;;;;;;;-4.38;75.55;102377.45;87859;1282;80040;-76
2022/03/10 05:41:47;;;;;;;13.50;8.20;;;;;;;-4.31;75.43;102379.18;87833;1282;98168;-61
2022/03/10 05:43:57;;;;;;;15.80;7.80;;;;;;;-4.24;75.42;102382.49;87862;1282;86753;-62
2022/03/10 05:46:10;;;;;;;17.20;8.10;;;;;;;-4.18;75.10;102385.64;87813;1282;93677;-62
2022/03/10 05:48:19;;;;;;;13.40;7.20;;;;;;;-3.97;75.14;102384.64;87811;1282;78663;-62
2022/03/10 05:50:32;;;;;;;13.50;7.50;;;;;;;-3.08;75.24;102388.09;87826;1281;83107;-62
2022/03/10 05:52:41;;;;;;;15.00;8.20;;;;;;;-1.72;74.76;102382.70;87824;1282;100185;-75
2022/03/10 05:54:50;;;;;;;12.90;7.30;;;;;;;-0.77;73.48;102383.35;87812;1282;88639;-76
2022/03/10 05:57:02;;;;;;;14.50;7.90;;;;;;;0.26;72.82;102385.58;87857;1282;94425;-77
2022/03/10 05:59:12;;;;;;;14.20;8.20;;;;;;;1.29;70.98;102382.88;87842;1282;77501;-77
2022/03/10 06:01:21;;;;;;;15.30;8.70;;;;;;;2.31;70.95;102382.35;87846;1282;83764;-77
2022/03/10 06:03:32;;;;;;;14.10;7.70;;;;;;;3.20;69.67;102384.48;87853;1282;97962;-76
2022/03/10 06:05:41;;;;;;;13.60;8.20;;;;;;;4.16;68.71;102388.02;87873;1282;88875;-75
2022/03/10 06:07:50;;;;;;;12.30;8.10;;;;;;;4.89;67.64;102384.33;87859;1282;94265;-75
2022/03/10 06:09:59;;;;;;;13.50;8.00;;;;;;;5.38;67.08;102391.04;87854;1282;77305;-74
2022/03/10 06:12:11;;;;;;;14.20;7.10;;;;;;;5.91;66.34;102391.21;87877;1282;81479;-75
2022/03/10 06:14:20;;;;;;;12.60;7.60;;;;;;;6.33;64.69;102393.33;87851;1282;99072;-74
2022/03/10 06:16:29;;;;;;;9.70;6.70;;;;;;;6.90;62.86;102398.23;87828;1282;88225;-76
2022/03/10 06:18:39;;;;;;;11.90;8.30;;;;;;;6.92;61.27;102402.27;87837;1282;95398;-72
2022/03/10 06:20:51;;;;;;;12.20;7.50;;;;;;;6.61;59.98;102407.66;87614;1284;78008;-76
2022/03/10 06:23:00;;;;;;;13.30;8.20;;;;;;;6.92;60.05;102409.06;87876;1282;81152;-63
2022/03/10 06:25:11;;;;;;;13.20;7.70;;;;;;;6.56;59.62;102412.33;87852;1281;98581;-62
2022/03/10 06:27:22;;;;;;;11.30;7.30;;;;;;;6.11;57.77;102420.67;87859;1282;89289;-72
2022/03/10 06:29:34;;;;;;;11.00;7.30;;;;;;;5.70;57.30;102420.05;87867;1282;95912;-74
2022/03/10 06:31:44;;;;;;;15.90;8.30;;;;;;;5.72;57.24;102431.34;87836;1282;77725;-77
2022/03/10 06:33:53;;;;;;;13.50;8.10;;;;;;;5.13;56.22;102434.10;87623;1284;82124;-74
2022/03/10 06:36:03;;;;;;;14.20;8.10;;;;;;;4.77;56.00;102438.14;87874;1282;100027;-60
2022/03/10 06:38:12;;;;;;;13.60;7.90;;;;;;;4.65;56.56;102443.61;87846;1282;89188;-61
2022/03/10 06:40:21;;;;;;;12.00;7.70;;;;;;;4.48;56.52;102441.37;87664;1284;95242;-76
2022/03/10 06:42:30;;;;;;;16.70;8.10;;;;;;;4.41;56.28;102447.20;87862;1282;77607;-75
2022/03/10 06:44:40;;;;;;;11.20;7.80;;;;;;;4.44;55.73;102443.01;87860;1282;80831;-72
2022/03/10 06:46:49;;;;;;;12.40;8.20;;;;;;;4.41;56.43;102447.00;87826;1282;100519;-60
2022/03/10 06:48:58;;;;;;;12.50;7.60;;;;;;;5.15;56.45;102447.02;87847;1282;89316;-60
2022/03/10 06:51:08;;;;;;;13.40;8.00;;;;;;;6.21;55.74;102444.61;87841;1282;94899;-61
2022/03/10 06:53:19;;;;;;;12.00;7.50;;;;;;;6.65;55.09;102445.71;87601;1284;81736;-60
2022/03/10 06:55:32;;;;;;;14.30;7.90;;;;;;;6.44;53.29;102444.75;87697;1284;82178;-61
2022/03/10 06:57:44;;;;;;;15.50;7.10;;;;;;;7.10;53.11;102446.38;87822;1282;99822;-74
2022/03/10 06:59:53;;;;;;;11.20;7.30;;;;;;;7.75;51.96;102447.15;87842;1282;88943;-74
2022/03/10 07:02:05;;;;;;;11.80;7.50;;;;;;;8.12;51.08;102447.05;87837;1282;95719;-61
2022/03/10 07:04:17;;;;;;;10.70;7.20;;;;;;;8.67;50.90;102445.23;87669;1284;80962;-61
2022/03/10 07:06:30;;;;;;;13.20;7.50;;;;;;;8.48;49.65;102446.59;87875;1282;80100;-72
2022/03/10 07:08:42;;;;;;;11.40;7.80;;;;;;;8.09;49.12;102446.23;87847;1282;99194;-70
2022/03/10 07:10:54;;;;;;;12.10;7.40;;;;;;;7.56;48.31;102452.23;87862;1281;88850;-71
2022/03/10 07:13:08;;;;;;;11.10;7.00;;;;;;;7.02;49.51;102458.83;87840;1282;94825;-70
2022/03/10 07:15:20;;;;;;;12.30;6.80;;;;;;;7.39;49.05;102452.52;87842;1282;80405;-59
2022/03/10 07:17:29;;;;;;;15.90;7.60;;;;;;;8.13;48.18;102459.88;87869;1282;82942;-74
2022/03/10 07:19:41;;;;;;;14.10;7.30;;;;;;;8.65;48.47;102455.61;87888;1282;100314;-75
2022/03/10 07:21:50;;;;;;;10.30;6.70;;;;;;;8.91;47.18;102454.50;87703;1284;88181;-75
2022/03/10 07:24:02;;;;;;;10.50;7.30;;;;;;;9.56;47.42;102455.23;87856;1282;94968;-76
2022/03/10 07:26:14;;;;;;;10.90;6.70;;;;;;;9.90;46.45;102448.55;87861;1282;77084;-76
2022/03/10 07:28:28;;;;;;;8.50;6.70;;;;;;;10.19;44.81;102453.41;87853;1282;82125;-75
2022/03/10 07:30:40;;;;;;;14.00;6.80;;;;;;;10.01;44.88;102455.56;87865;1282;98590;-75
2022/03/10 07:32:50;;;;;;;11.90;6.60;;;;;;;10.17;44.20;102461.84;87866;1282;89615;-75
2022/03/10 07:34:59;;;;;;;10.70;6.50;;;;;;;10.23;42.48;102458.65;87854;1282;94563;-60
2022/03/10 07:37:11;;;;;;;10.70;6.70;;;;;;;10.55;43.36;102465.95;87873;1282;78702;-74
2022/03/10 07:39:20;;;;;;;9.40;5.70;;;;;;;11.28;43.86;102464.21;87862;1282;82858;-75
2022/03/10 07:41:33;;;;;;;11.30;6.70;;;;;;;11.65;42.38;102460.50;87843;1282;101069;-77
2022/03/10 07:43:42;;;;;;;14.40;6.90;;;;;;;12.32;43.24;102456.48;87853;1282;88262;-75
2022/03/10 07:45:54;;;;;;;10.60;6.80;;;;;;;12.86;43.24;102456.14;87873;1282;94035;-79
2022/03/10 07:48:03;;;;;;;10.50;7.10;;;;;;;13.17;41.05;102457.30;87869;1282;81235;-79
2022/03/10 07:50:13;;;;;;;9.70;7.10;;;;;;;14.01;41.38;102448.90;87869;1282;82746;-78
2022/03/10 07:52:22;;;;;;;9.10;6.10;;;;;;;14.46;39.86;102448.20;87878;1282;100690;-77
2022/03/10 07:54:31;;;;;;;10.20;6.70;;;;;;;14.93;39.86;102443.94;87849;1282;89307;-79
2022/03/10 07:56:43;;;;;;;14.90;7.00;;;;;;;14.90;39.20;102445.40;87670;1284;96062;-60
2022/03/10 07:58:54;;;;;;;10.30;6.70;;;;;;;15.25;39.65;102446.32;87868;1282;80483;-59
2022/03/10 08:01:03;;;;;;;12.20;7.10;;;;;;;15.74;39.51;102453.58;87870;1282;81120;-76
2022/03/10 08:03:12;;;;;;;11.00;6.80;;;;;;;15.83;37.39;102455.08;87846;1282;98042;-76
2022/03/10 08:05:21;;;;;;;8.20;6.50;;;;;;;16.24;35.64;102455.09;87878;1282;88220;-76
2022/03/10 08:07:34;;;;;;;12.00;7.80;;;;;;;16.08;36.61;102454.23;87827;1282;95381;-60
2022/03/10 08:09:42;;;;;;;13.20;8.30;;;;;;;16.57;35.96;102451.94;87844;1282;79943;-62
2022/03/10 08:11:52;;;;;;;9.00;6.90;;;;;;;16.27;33.97;102459.65;87869;1282;81209;-59
2022/03/10 08:14:02;;;;;;;9.00;6.20;;;;;;;16.17;33.25;102457.58;87873;1282;100511;-62
2022/03/10 08:16:11;;;;;;;9.00;6.40;;;;;;;16.02;33.22;102456.94;87844;1282;88430;-59
2022/03/10 08:18:24;;;;;;;31.20;19.40;;;;;;;15.18;32.70;102461.35;87866;1282;95318;-59
2022/03/10 08:20:34;;;;;;;38.30;20.70;;;;;;;15.44;33.67;102456.10;87831;1282;78532;-60
2022/03/10 08:22:43;;;;;;;8.70;6.50;;;;;;;15.82;31.40;102454.46;87866;1282;82175;-61
2022/03/10 08:24:52;;;;;;;17.00;10.70;;;;;;;15.47;30.98;102450.29;87895;1282;98195;-60
2022/03/10 08:27:02;;;;;;;12.10;8.30;;;;;;;15.45;31.26;102452.34;87857;1282;89124;-77
2022/03/10 08:29:11;;;;;;;12.90;7.40;;;;;;;15.72;30.42;102453.98;87857;1282;95534;-71
2022/03/10 08:31:21;;;;;;;26.40;17.40;;;;;;;15.45;29.74;102453.95;87566;1284;78691;-61
2022/03/10 08:33:31;;;;;;;19.20;13.40;;;;;;;15.62;30.35;102453.85;87714;1283;81413;-61
2022/03/10 08:35:43;;;;;;;12.40;8.70;;;;;;;15.23;30.11;102453.10;87871;1282;98190;-59
2022/03/10 08:37:52;;;;;;;9.90;6.70;;;;;;;15.73;30.47;102452.41;87862;1282;87965;-72
2022/03/10 08:40:01;;;;;;;8.80;7.00;;;;;;;15.93;28.59;102452.60;87595;1284;96625;-73
2022/03/10 08:42:13;;;;;;;12.40;6.60;;;;;;;15.46;29.30;102455.64;87684;1283;79580;-60
2022/03/10 08:44:23;;;;;;;7.20;4.80;;;;;;;15.46;29.94;102455.42;87876;1282;81103;-60
2022/03/10 08:46:31;;;;;;;12.00;8.50;;;;;;;15.47;29.41;102457.94;87879;1282;97752;-72
2022/03/10 08:48:45;;;;;;;14.60;9.90;;;;;;;15.25;29.35;102455.23;87884;1282;87719;-72
2022/03/10 08:50:55;;;;;;;7.60;5.20;;;;;;;14.99;29.44;102456.95;87905;1282;94939;-73
2022/03/10 08:53:04;;;;;;;20.50;14.20;;;;;;;15.28;30.21;102460.59;87871;1282;77460;-75
2022/03/10 08:55:14;;;;;;;8.40;5.60;;;;;;;15.38;28.35;102462.23;87896;1282;82977;-75
2022/03/10 08:57:23;;;;;;;6.70;5.50;;;;;;;14.98;28.45;102460.50;87874;1282;100345;-62
2022/03/10 08:59:32;;;;;;;6.00;4.80;;;;;;;14.50;27.05;102465.40;87892;1282;89430;-63
2022/03/10 09:01:41;;;;;;;5.00;4.30;;;;;;;14.02;27.37;102464.45;87866;1282;94473;-61
2022/03/10 09:03:53;;;;;;;6.70;4.30;;;;;;;13.95;26.73;102465.07;87710;1284;79534;-64
2022/03/10 09:06:02;;;;;;;6.30;4.20;;;;;;;13.45;27.44;102465.67;87872;1282;81126;-62
2022/03/10 09:08:12;;;;;;;8.20;5.10;;;;;;;13.15;27.86;102468.86;87857;1282;99924;-60
2022/03/10 09:10:23;;;;;;;9.00;5.20;;;;;;;12.98;28.26;102464.88;87888;1282;88198;-61
2022/03/10 09:12:33;;;;;;;6.80;5.60;;;;;;;13.33;28.56;102463.43;87881;1282;95884;-79
2022/03/10 09:14:45;;;;;;;10.60;4.90;;;;;;;13.56;28.08;102464.27;87919;1282;78937;-77
2022/03/10 09:16:54;;;;;;;11.20;4.80;;;;;;;13.52;26.99;102467.62;87897;1282;82308;-59
2022/03/10 09:19:04;;;;;;;7.30;4.60;;;;;;;13.71;27.75;102461.28;87662;1284;99177;-60
2022/03/10 09:21:19;;;;;;;8.80;4.80;;;;;;;13.80;27.96;102456.21;87896;1282;86584;-62
2022/03/10 09:23:29;;;;;;;6.90;4.90;;;;;;;13.33;27.44;102463.95;87897;1282;94813;-63
2022/03/10 09:25:39;;;;;;;7.50;4.30;;;;;;;13.07;27.69;102461.63;87863;1282;81762;-61
2022/03/10 09:27:49;;;;;;;5.60;4.20;;;;;;;13.02;26.90;102460.14;87867;1282;82705;-61
2022/03/10 09:29:58;;;;;;;4.90;4.20;;;;;;;13.03;27.43;102460.70;87872;1282;99653;-61
2022/03/10 09:32:11;;;;;;;6.40;5.60;;;;;;;12.48;26.54;102458.34;87849;1282;88171;-78
2022/03/10 09:34:21;;;;;;;5.00;4.50;;;;;;;12.49;26.96;102451.96;87839;1282;95590;-77
2022/03/10 09:36:30;;;;;;;8.20;6.40;;;;;;;12.88;27.47;102453.52;87902;1282;78090;-61
2022/03/10 09:38:40;;;;;;;5.50;4.00;;;;;;;12.50;26.69;102456.29;87870;1282;80783;-61
2022/03/10 09:40:56;;;;;;;8.80;5.90;;;;;;;12.06;27.89;102448.99;87883;1282;98737;-61
2022/03/10 09:43:05;;;;;;;5.20;4.60;;;;;;;12.28;27.10;102455.79;87873;1282;88275;-59
2022/03/10 09:45:15;;;;;;;7.50;5.50;;;;;;;12.16;27.36;102456.30;87850;1282;95778;-60
2022/03/10 09:47:24;;;;;;;9.80;7.00;;;;;;;11.94;26.23;102457.19;87855;1282;77992;-61
2022/03/10 09:49:35;;;;;;;9.50;6.50;;;;;;;11.31;26.46;102460.45;87890;1282;80781;-63
2022/03/10 09:51:44;;;;;;;10.40;7.50;;;;;;;10.82;27.52;102456.06;87889;1282;98903;-61
2022/03/10 09:53:53;;;;;;;9.20;7.00;;;;;;;10.88;27.33;102455.23;87858;1282;86990;-62
2022/03/10 09:56:03;;;;;;;7.60;4.00;;;;;;;10.71;28.19;102451.02;87888;1282;93239;-62
2022/03/10 09:58:12;;;;;;;11.00;7.30;;;;;;;10.83;27.80;102452.95;87849;1282;77469;-61
2022/03/10 10:00:24;;;;;;;7.00;4.80;;;;;;;10.47;27.34;102467.61;87897;1282;82467;-61
2022/03/10 10:02:34;;;;;;;7.80;4.90;;;;;;;9.83;27.71;102466.29;87879;1282;97698;-62
2022/03/10 10:04:44;;;;;;;8.00;5.40;;;;;;;9.04;28.21;102474.64;87709;1284;88688;-62